Terminal Aerodrome Forecast
Issued by NWS Twin Cities, MN

Home | Current Version | Previous Version | Text Only | Print | Product List | Glossary Off
Versions: 1 2 3 4 5 6 7 8 9 10 11 12 13 14 15 16 17 18 19 20 21 22 23 24

000
FTUS43 KMPX 211458 AAA
TAFMSP
TAF AMD
KMSP 211458Z 2115/2218 VRB02KT P6SM OVC100
     FM212000 02006KT P6SM OVC050
     FM220600 03010KT P6SM OVC040
     FM221000 03014G20KT 4SM -SN OVC015
     FM221200 03016G24KT 2SM -SN OVC010=

USA.gov is the U.S. government's official web portal to all federal, state and local government web resources and services.